createdAt,value
2019-02-26T00:04:02.041Z,102797.51
2019-02-26T00:09:08.450Z,102802.27
2019-02-26T00:14:15.502Z,102792.30
2019-02-26T00:19:17.019Z,102789.44
2019-02-26T00:24:20.501Z,102780.52
2019-02-26T00:29:25.342Z,102777.70
2019-02-26T00:34:30.471Z,102768.53
2019-02-26T00:39:34.317Z,102761.11
2019-02-26T00:44:37.754Z,102760.73
2019-02-26T00:49:41.978Z,102750.53
2019-02-26T00:54:46.297Z,102752.00
2019-02-26T00:59:49.713Z,102745.02
2019-02-26T01:04:53.168Z,102736.80
2019-02-26T01:09:56.984Z,102742.31
2019-02-26T01:15:03.136Z,102747.88
2019-02-26T01:20:10.015Z,102759.28
2019-02-26T01:25:15.867Z,102759.75
2019-02-26T01:30:23.562Z,102761.31
2019-02-26T01:35:23.920Z,102758.84
2019-02-26T01:40:27.358Z,102744.96
2019-02-26T01:45:32.408Z,102735.16
2019-02-26T01:50:37.854Z,102732.28
2019-02-26T01:55:42.071Z,102733.91
2019-02-26T02:00:46.139Z,102721.30
2019-02-26T02:05:50.343Z,102723.52
2019-02-26T02:10:58.918Z,102718.19
2019-02-26T02:16:02.035Z,102697.84
2019-02-26T02:21:04.961Z,102702.86
2019-02-26T02:26:09.426Z,102704.75
2019-02-26T02:31:13.598Z,102678.95
2019-02-26T02:36:17.734Z,102691.91
2019-02-26T02:41:22.161Z,102692.44
2019-02-26T02:46:25.643Z,102680.81
2019-02-26T02:51:31.470Z,102686.31
2019-02-26T02:56:37.001Z,102692.11
2019-02-26T03:01:39.576Z,102695.03
2019-02-26T03:06:42.999Z,102699.55
2019-02-26T03:11:47.256Z,102703.01
2019-02-26T03:16:53.482Z,102710.20
2019-02-26T03:21:56.684Z,102700.22
2019-02-26T03:27:00.247Z,102689.95
2019-02-26T03:32:03.617Z,102687.54
2019-02-26T03:37:08.230Z,102692.62
2019-02-26T03:42:14.156Z,102699.47
2019-02-26T03:47:18.724Z,102686.59
2019-02-26T03:52:22.689Z,102671.77
2019-02-26T03:57:26.117Z,102677.68
2019-02-26T04:02:29.610Z,102681.03
2019-02-26T04:07:33.968Z,102693.51
2019-02-26T04:12:41.830Z,102682.56
2019-02-26T04:17:43.394Z,102676.30
2019-02-26T04:22:49.918Z,102682.73
2019-02-26T04:27:56.991Z,102680.23
2019-02-26T04:33:39.243Z,102683.86
2019-02-26T04:39:18.928Z,102687.26
2019-02-26T04:44:29.221Z,102697.22
2019-02-26T04:49:36.010Z,102698.34
2019-02-26T04:54:39.582Z,102700.99
2019-02-26T04:59:44.037Z,102708.81
2019-02-26T05:04:47.552Z,102701.08
2019-02-26T05:09:53.253Z,102699.30
2019-02-26T05:14:56.124Z,102694.97
2019-02-26T05:19:59.633Z,102697.70
2019-02-26T05:25:04.755Z,102691.12
2019-02-26T05:30:12.455Z,102702.93
2019-02-26T05:35:17.363Z,102701.97
2019-02-26T05:40:22.100Z,102694.22
2019-02-26T05:45:26.562Z,102701.13
2019-02-26T05:50:32.074Z,102696.94
2019-02-26T05:55:35.160Z,102691.45
2019-02-26T06:00:38.639Z,102691.70
2019-02-26T06:05:45.759Z,102690.89
2019-02-26T06:10:47.898Z,102689.95
2019-02-26T06:15:52.288Z,102686.78
2019-02-26T06:20:58.442Z,102674.84
2019-02-26T06:26:04.930Z,102688.88
2019-02-26T06:31:06.911Z,102693.12
2019-02-26T06:36:10.989Z,102705.72
2019-02-26T06:41:14.432Z,102705.31
2019-02-26T06:46:17.883Z,102706.67
2019-02-26T06:51:23.736Z,102704.10
2019-02-26T06:56:26.481Z,102711.53
2019-02-26T07:01:32.385Z,102703.81
2019-02-26T07:06:35.085Z,102704.77
2019-02-26T07:11:38.501Z,102710.91
2019-02-26T07:16:41.933Z,102713.10
2019-02-26T07:21:45.486Z,102712.51
2019-02-26T07:26:50.498Z,102709.05
2019-02-26T07:31:54.881Z,102714.20
2019-02-26T07:36:59.082Z,102716.61
2019-02-26T07:42:02.521Z,102713.47
2019-02-26T07:47:06.682Z,102717.99
2019-02-26T07:52:11.156Z,102715.56
2019-02-26T07:57:15.760Z,102726.38
2019-02-26T08:02:19.721Z,102729.09
2019-02-26T08:07:24.496Z,102727.63
2019-02-26T08:12:28.321Z,102724.55
2019-02-26T08:17:31.775Z,102721.87
2019-02-26T08:22:36.290Z,102720.14
2019-02-26T08:27:39.806Z,102716.06
2019-02-26T08:32:43.403Z,102705.41
2019-02-26T08:37:46.826Z,102704.05
2019-02-26T08:42:50.245Z,102708.05
2019-02-26T08:47:53.735Z,102709.30
2019-02-26T08:52:58.493Z,102719.78
2019-02-26T08:58:02.050Z,102718.44
2019-02-26T09:03:05.716Z,102707.60
2019-02-26T09:08:10.898Z,102701.48
2019-02-26T09:13:16.312Z,102705.84
2019-02-26T09:18:20.430Z,102713.19
2019-02-26T09:23:25.825Z,102719.22
2019-02-26T09:28:32.004Z,102719.47
2019-02-26T09:33:36.344Z,102733.14
2019-02-26T09:38:41.892Z,102747.86
2019-02-26T09:43:46.317Z,102739.95
2019-02-26T09:48:50.539Z,102746.88
2019-02-26T09:53:56.182Z,102739.80
2019-02-26T09:58:59.139Z,102749.41
2019-02-26T10:04:04.992Z,102754.29
2019-02-26T10:09:10.651Z,102747.47
2019-02-26T10:14:15.030Z,102748.28
2019-02-26T10:19:19.526Z,102735.02
2019-02-26T10:24:27.155Z,102733.12
2019-02-26T10:29:28.227Z,102741.98
2019-02-26T10:34:31.759Z,102732.81
2019-02-26T10:39:35.213Z,102727.36
2019-02-26T10:44:38.654Z,102729.36
2019-02-26T10:49:42.098Z,102718.07
2019-02-26T10:54:46.600Z,102709.95
2019-02-26T10:59:50.141Z,102711.73
2019-02-26T11:04:55.417Z,102699.39
2019-02-26T11:09:59.027Z,102701.10
2019-02-26T11:15:04.983Z,102702.97
2019-02-26T11:20:10.919Z,102697.06
2019-02-26T11:25:18.499Z,102693.01
2019-02-26T11:30:27.253Z,102686.22
2019-02-26T11:35:29.331Z,102684.89
2019-02-26T11:40:32.775Z,102681.19
2019-02-26T11:45:37.098Z,102676.44
2019-02-26T11:50:44.575Z,102672.84
2019-02-26T11:55:49.356Z,102664.67
2019-02-26T12:00:54.161Z,102651.90
2019-02-26T12:06:00.589Z,102657.69
2019-02-26T12:11:03.979Z,102652.63
2019-02-26T12:16:07.934Z,102652.98
2019-02-26T12:21:12.852Z,102653.01
2019-02-26T12:26:19.187Z,102648.28
2019-02-26T12:31:21.682Z,102642.77
2019-02-26T12:36:26.598Z,102638.22
2019-02-26T12:41:32.433Z,102635.95
2019-02-26T12:46:35.517Z,102632.00
2019-02-26T12:51:39.017Z,102629.59
2019-02-26T12:56:42.462Z,102618.36
2019-02-26T13:01:46.819Z,102618.67
2019-02-26T13:06:52.038Z,102593.01
2019-02-26T13:12:01.284Z,102605.33
2019-02-26T13:17:00.748Z,102600.38
2019-02-26T13:22:06.706Z,102587.03
2019-02-26T13:27:09.389Z,102584.08
2019-02-26T13:32:16.843Z,102577.28
2019-02-26T13:37:17.994Z,102570.05
2019-02-26T13:42:21.442Z,102562.31
2019-02-26T13:47:25.045Z,102560.59
2019-02-26T13:52:28.489Z,102555.53
2019-02-26T13:57:31.935Z,102550.55
2019-02-26T14:02:35.430Z,102544.50
2019-02-26T14:07:38.867Z,102533.97
2019-02-26T14:12:42.343Z,102525.50
2019-02-26T14:17:45.799Z,102527.09
2019-02-26T14:22:49.328Z,102526.76
2019-02-26T14:27:52.760Z,102529.48
2019-02-26T14:32:56.266Z,102512.11
2019-02-26T14:37:59.741Z,102506.20
2019-02-26T14:43:03.154Z,102516.48
2019-02-26T14:48:06.623Z,102516.48
2019-02-26T14:53:10.049Z,102514.52
2019-02-26T14:58:13.502Z,102509.17
2019-02-26T15:03:17.003Z,102509.17
2019-02-26T15:08:20.460Z,102496.02
2019-02-26T15:13:25.479Z,102484.44
2019-02-26T15:18:29.091Z,102481.03
2019-02-26T15:23:32.502Z,102482.14
2019-02-26T15:28:35.974Z,102479.11
2019-02-26T15:33:39.486Z,102478.11
2019-02-26T15:38:42.949Z,102479.26
2019-02-26T15:43:46.455Z,102484.97
2019-02-26T15:48:49.911Z,102471.78
2019-02-26T15:53:55.709Z,102471.73
2019-02-26T15:58:58.934Z,102466.77
2019-02-26T16:04:02.379Z,102462.95
2019-02-26T16:09:07.259Z,102464.44
2019-02-26T16:14:10.715Z,102454.34
2019-02-26T16:19:14.214Z,102455.73
2019-02-26T16:24:17.664Z,102454.91
2019-02-26T16:29:21.102Z,102444.04
2019-02-26T16:34:24.515Z,102445.55
2019-02-26T16:39:27.936Z,102447.03
2019-02-26T16:44:31.627Z,102455.41
2019-02-26T16:49:35.048Z,102453.70
2019-02-26T16:54:38.674Z,102441.45
2019-02-26T16:59:43.662Z,102448.84
2019-02-26T17:04:47.106Z,102453.09
2019-02-26T17:09:50.559Z,102461.67
2019-02-26T17:14:54.036Z,102455.43
2019-02-26T17:19:57.528Z,102450.86
2019-02-26T17:25:01.037Z,102448.46
2019-02-26T17:30:07.365Z,102455.73
2019-02-26T17:35:11.640Z,102457.28
2019-02-26T17:40:20.202Z,102463.45
2019-02-26T17:45:37.229Z,102464.43
2019-02-26T17:50:43.369Z,102463.22
2019-02-26T17:55:47.023Z,102463.99
2019-02-26T18:00:53.026Z,102461.31
2019-02-26T18:05:56.435Z,102457.01
2019-02-26T18:10:59.863Z,102460.58
2019-02-26T18:16:09.186Z,102462.17
2019-02-26T18:21:08.441Z,102464.62
2019-02-26T18:26:11.893Z,102459.02
2019-02-26T18:31:15.308Z,102459.12
2019-02-26T18:36:18.741Z,102459.91
2019-02-26T18:41:22.167Z,102457.06
2019-02-26T18:46:25.593Z,102453.83
2019-02-26T18:51:29.157Z,102459.88
2019-02-26T18:56:36.690Z,102457.13
2019-02-26T19:01:38.600Z,102454.48
2019-02-26T19:06:42.017Z,102460.98
2019-02-26T19:11:45.451Z,102451.61
2019-02-26T19:16:48.908Z,102452.84
2019-02-26T19:21:54.176Z,102456.99
2019-02-26T19:26:57.548Z,102462.71
2019-02-26T19:32:01.076Z,102456.84
2019-02-26T19:37:04.504Z,102463.31
2019-02-26T19:42:07.918Z,102454.53
2019-02-26T19:47:11.347Z,102456.81
2019-02-26T19:52:14.798Z,102454.00
2019-02-26T19:57:18.225Z,102450.04
2019-02-26T20:02:21.667Z,102450.66
2019-02-26T20:07:25.089Z,102445.56
2019-02-26T20:12:29.223Z,102443.53
2019-02-26T20:17:32.668Z,102433.35
2019-02-26T20:22:36.112Z,102427.56
2019-02-26T20:27:39.537Z,102431.80
2019-02-26T20:32:43.011Z,102436.84
2019-02-26T20:37:46.500Z,102433.06
2019-02-26T20:42:49.913Z,102439.73
2019-02-26T20:47:53.416Z,102431.19
2019-02-26T20:52:56.846Z,102437.06
2019-02-26T20:58:00.261Z,102428.43
2019-02-26T21:03:03.702Z,102422.13
2019-02-26T21:08:07.288Z,102423.06
2019-02-26T21:13:10.707Z,102422.40
2019-02-26T21:18:14.128Z,102420.36
2019-02-26T21:23:17.567Z,102412.30
2019-02-26T21:28:20.982Z,102408.32
2019-02-26T21:33:24.405Z,102407.03
2019-02-26T21:38:27.838Z,102406.78
2019-02-26T21:43:34.795Z,102402.44
2019-02-26T21:48:37.233Z,102400.55
2019-02-26T21:53:40.712Z,102401.12
2019-02-26T21:58:44.142Z,102402.69
2019-02-26T22:03:58.561Z,102402.80
2019-02-26T22:09:01.744Z,102405.38
2019-02-26T22:14:05.444Z,102410.56
2019-02-26T22:19:08.865Z,102406.00
2019-02-26T22:24:12.279Z,102410.14
2019-02-26T22:29:15.860Z,102396.56
2019-02-26T22:34:19.765Z,102399.23
2019-02-26T22:39:23.339Z,102397.94
2019-02-26T22:44:26.708Z,102392.11
2019-02-26T22:49:30.176Z,102387.55
2019-02-26T22:54:34.984Z,102385.70
2019-02-26T22:59:40.892Z,102384.08
2019-02-26T23:04:43.706Z,102387.05
2019-02-26T23:09:51.920Z,102372.31
2019-02-26T23:14:53.417Z,102371.44
2019-02-26T23:19:57.101Z,102373.42
2019-02-26T23:25:01.508Z,102366.81
2019-02-26T23:30:10.840Z,102360.39
2019-02-26T23:35:15.031Z,102364.17
2019-02-26T23:40:19.934Z,102359.00
2019-02-26T23:45:24.220Z,102358.77
2019-02-26T23:50:28.367Z,102349.71
2019-02-26T23:55:31.818Z,102356.03
